createdAt,value
2022-07-29T00:01:19.276Z,1.10
2022-07-29T00:03:47.819Z,0.80
2022-07-29T00:06:15.961Z,0.80
2022-07-29T00:08:43.062Z,0.70
2022-07-29T00:11:10.223Z,0.90
2022-07-29T00:13:37.392Z,0.85
2022-07-29T00:16:07.668Z,0.90
2022-07-29T00:18:34.774Z,1.10
2022-07-29T00:21:01.798Z,1.00
2022-07-29T00:23:30.690Z,0.90
2022-07-29T00:25:58.679Z,0.80
2022-07-29T00:28:25.734Z,0.93
2022-07-29T00:30:52.838Z,1.00
2022-07-29T00:33:20.037Z,0.98
2022-07-29T00:35:47.736Z,0.82
2022-07-29T00:38:20.919Z,0.95
2022-07-29T00:40:49.386Z,0.70
2022-07-29T00:43:18.090Z,1.13
2022-07-29T00:45:45.690Z,0.80
2022-07-29T00:48:12.765Z,1.13
2022-07-29T00:50:40.294Z,0.80
2022-07-29T00:53:08.884Z,0.88
2022-07-29T00:55:36.596Z,0.90
2022-07-29T00:58:04.191Z,0.93
2022-07-29T01:00:32.091Z,1.10
2022-07-29T01:02:59.666Z,0.90
2022-07-29T01:05:50.342Z,0.85
2022-07-29T01:08:18.191Z,0.90
2022-07-29T01:10:48.152Z,1.10
2022-07-29T01:13:17.092Z,1.10
2022-07-29T01:16:08.260Z,1.20
2022-07-29T01:18:43.135Z,1.30
2022-07-29T01:21:51.004Z,1.10
2022-07-29T01:24:29.413Z,1.38
2022-07-29T01:27:39.516Z,1.10
2022-07-29T01:30:09.742Z,1.48
2022-07-29T01:32:40.159Z,1.98
2022-07-29T01:35:24.567Z,2.17
2022-07-29T01:38:01.402Z,1.70
2022-07-29T01:40:41.748Z,1.70
2022-07-29T01:43:18.263Z,2.08
2022-07-29T01:45:57.224Z,1.85
2022-07-29T01:48:35.837Z,2.20
2022-07-29T01:51:13.232Z,2.55
2022-07-29T01:53:56.002Z,2.40
2022-07-29T01:56:27.121Z,2.40
2022-07-29T01:58:56.162Z,2.78
2022-07-29T02:01:29.000Z,2.42
2022-07-29T02:03:58.221Z,2.45
2022-07-29T02:06:28.633Z,2.47
2022-07-29T02:08:59.585Z,2.67
2022-07-29T02:11:27.104Z,2.70
2022-07-29T02:13:58.532Z,2.63
2022-07-29T02:16:31.533Z,2.90
2022-07-29T02:19:02.121Z,2.67
2022-07-29T02:21:33.016Z,3.00
2022-07-29T02:24:03.130Z,2.90
2022-07-29T02:26:34.521Z,2.60
2022-07-29T02:29:03.305Z,2.45
2022-07-29T02:31:36.844Z,2.50
2022-07-29T02:34:09.317Z,2.40
2022-07-29T02:36:37.886Z,2.30
2022-07-29T02:39:07.228Z,2.45
2022-07-29T02:42:02.595Z,2.50
2022-07-29T02:44:34.244Z,3.00
2022-07-29T02:47:28.140Z,2.92
2022-07-29T02:50:13.487Z,2.67
2022-07-29T02:53:06.504Z,2.50
2022-07-29T02:55:41.159Z,2.80
2022-07-29T02:58:29.441Z,2.90
2022-07-29T03:01:01.052Z,3.05
2022-07-29T03:03:36.370Z,3.00
2022-07-29T03:06:05.947Z,3.03
2022-07-29T03:08:35.198Z,3.60
2022-07-29T03:11:04.597Z,3.20
2022-07-29T03:13:32.092Z,2.80
2022-07-29T03:16:01.368Z,3.20
2022-07-29T03:18:29.018Z,2.95
2022-07-29T03:20:56.386Z,3.17
2022-07-29T03:23:24.965Z,3.13
2022-07-29T03:25:52.519Z,3.13
2022-07-29T03:28:20.460Z,3.20
2022-07-29T03:30:50.722Z,3.08
2022-07-29T03:33:18.056Z,3.20
2022-07-29T03:35:45.277Z,3.53
2022-07-29T03:38:12.611Z,3.28
2022-07-29T03:40:50.606Z,3.38
2022-07-29T03:43:20.977Z,3.38
2022-07-29T03:45:55.417Z,3.60
2022-07-29T03:48:27.671Z,3.30
2022-07-29T03:50:54.749Z,3.75
2022-07-29T03:53:21.973Z,3.33
2022-07-29T03:55:55.713Z,3.50
2022-07-29T03:58:27.182Z,3.85
2022-07-29T04:00:56.468Z,3.22
2022-07-29T04:03:24.182Z,3.85
2022-07-29T04:06:07.086Z,3.22
2022-07-29T04:08:35.312Z,3.33
2022-07-29T04:11:03.696Z,3.40
2022-07-29T04:13:32.340Z,3.90
2022-07-29T04:15:59.935Z,4.00
2022-07-29T04:18:28.045Z,4.57
2022-07-29T04:20:55.091Z,3.83
2022-07-29T04:23:22.079Z,3.55
2022-07-29T04:25:49.159Z,4.00
2022-07-29T04:28:16.164Z,4.47
2022-07-29T04:30:45.398Z,3.78
2022-07-29T04:33:13.556Z,3.70
2022-07-29T04:35:49.829Z,3.90
2022-07-29T04:38:18.084Z,3.83
2022-07-29T04:40:45.198Z,3.42
2022-07-29T04:43:14.280Z,3.90
2022-07-29T04:45:43.082Z,4.65
2022-07-29T04:48:10.295Z,4.32
2022-07-29T04:50:41.462Z,3.78
2022-07-29T04:53:08.788Z,3.67
2022-07-29T04:55:37.175Z,4.18
2022-07-29T04:58:06.549Z,3.60
2022-07-29T05:00:33.851Z,3.58
2022-07-29T05:03:01.158Z,3.78
2022-07-29T05:05:28.314Z,3.80
2022-07-29T05:07:56.189Z,3.63
2022-07-29T05:10:23.621Z,3.92
2022-07-29T05:12:50.676Z,3.60
2022-07-29T05:15:18.641Z,3.83
2022-07-29T05:17:45.784Z,3.65
2022-07-29T05:20:12.849Z,3.25
2022-07-29T05:22:39.872Z,3.45
2022-07-29T05:25:09.274Z,4.00
2022-07-29T05:27:37.889Z,3.65
2022-07-29T05:30:05.640Z,3.67
2022-07-29T05:32:32.792Z,3.30
2022-07-29T05:34:59.792Z,3.83
2022-07-29T05:37:26.852Z,4.00
2022-07-29T05:39:57.251Z,3.85
2022-07-29T05:42:26.800Z,4.30
2022-07-29T05:44:54.640Z,4.28
2022-07-29T05:47:22.429Z,4.05
2022-07-29T05:49:51.764Z,3.60
2022-07-29T05:52:19.635Z,3.83
2022-07-29T05:54:49.008Z,4.43
2022-07-29T05:57:21.868Z,3.85
2022-07-29T05:59:50.852Z,3.83
2022-07-29T06:02:18.702Z,4.32
2022-07-29T06:04:45.809Z,4.57
2022-07-29T06:07:12.850Z,4.00
2022-07-29T06:09:40.012Z,3.67
2022-07-29T06:12:07.190Z,3.58
2022-07-29T06:14:34.226Z,4.50
2022-07-29T06:17:01.293Z,4.57
2022-07-29T06:19:28.356Z,4.00
2022-07-29T06:21:57.412Z,4.05
2022-07-29T06:24:24.394Z,4.22
2022-07-29T06:26:51.501Z,4.05
2022-07-29T06:29:18.510Z,3.72
2022-07-29T06:31:45.637Z,4.13
2022-07-29T06:34:12.828Z,4.50
2022-07-29T06:36:41.153Z,4.50
2022-07-29T06:39:09.794Z,4.45
2022-07-29T06:41:38.776Z,4.15
2022-07-29T06:44:10.358Z,3.83
2022-07-29T06:46:38.570Z,4.35
2022-07-29T06:49:06.163Z,3.58
2022-07-29T06:51:33.234Z,3.80
2022-07-29T06:54:03.298Z,4.63
2022-07-29T06:56:40.246Z,4.47
2022-07-29T06:59:11.428Z,4.15
2022-07-29T07:01:45.131Z,4.75
2022-07-29T07:04:12.944Z,4.25
2022-07-29T07:06:40.427Z,4.10
2022-07-29T07:09:07.598Z,4.22
2022-07-29T07:11:34.955Z,4.72
2022-07-29T07:14:03.876Z,5.47
2022-07-29T07:16:32.824Z,4.40
2022-07-29T07:19:00.971Z,5.60
2022-07-29T07:21:30.371Z,5.30
2022-07-29T07:23:58.954Z,5.38
2022-07-29T07:26:26.877Z,5.18
2022-07-29T07:28:54.277Z,5.03
2022-07-29T07:31:21.500Z,5.65
2022-07-29T07:33:48.553Z,4.80
2022-07-29T07:36:15.516Z,4.68
2022-07-29T07:38:42.552Z,5.07
2022-07-29T07:41:09.727Z,4.50
2022-07-29T07:43:36.845Z,5.03
2022-07-29T07:46:04.098Z,5.00
2022-07-29T07:48:31.363Z,4.85
2022-07-29T07:50:58.437Z,4.60
2022-07-29T07:53:25.404Z,4.50
2022-07-29T07:58:40.168Z,5.05
2022-07-29T08:01:07.511Z,4.60
2022-07-29T08:03:34.723Z,4.80
2022-07-29T08:06:02.682Z,4.68
2022-07-29T08:08:29.820Z,4.60
2022-07-29T08:10:57.267Z,4.68
2022-07-29T08:13:29.077Z,4.60
2022-07-29T08:16:01.078Z,5.07
2022-07-29T08:18:32.431Z,4.57
2022-07-29T08:20:59.864Z,4.15
2022-07-29T08:23:32.846Z,4.10
2022-07-29T08:26:15.013Z,4.18
2022-07-29T08:28:50.337Z,4.68
2022-07-29T08:31:18.028Z,4.25
2022-07-29T08:33:45.584Z,4.05
2022-07-29T08:36:14.061Z,3.10
2022-07-29T08:38:44.031Z,3.92
2022-07-29T08:41:11.249Z,3.65
2022-07-29T08:43:39.492Z,3.08
2022-07-29T08:46:06.715Z,3.38
2022-07-29T08:48:35.201Z,3.47
2022-07-29T08:51:02.848Z,3.70
2022-07-29T08:53:33.155Z,3.65
2022-07-29T08:56:00.929Z,3.42
2022-07-29T08:58:33.020Z,3.90
2022-07-29T09:01:07.510Z,3.58
2022-07-29T09:03:37.929Z,3.53
2022-07-29T09:06:07.290Z,3.40
2022-07-29T09:08:35.748Z,3.38
2022-07-29T09:11:05.405Z,3.08
2022-07-29T09:13:35.751Z,3.20
2022-07-29T09:16:09.726Z,3.38
2022-07-29T09:18:45.650Z,3.20
2022-07-29T09:21:35.848Z,3.38
2022-07-29T09:24:15.095Z,3.28
2022-07-29T09:26:45.343Z,3.00
2022-07-29T09:29:18.367Z,3.20
2022-07-29T09:31:54.767Z,3.00
2022-07-29T09:34:27.873Z,3.22
2022-07-29T09:36:56.779Z,2.83
2022-07-29T09:39:46.739Z,3.22
2022-07-29T09:42:16.699Z,3.17
2022-07-29T09:44:50.934Z,3.42
2022-07-29T09:50:00.139Z,3.00
2022-07-29T09:52:31.083Z,3.42
2022-07-29T09:55:13.627Z,3.50
2022-07-29T09:58:29.892Z,3.13
2022-07-29T10:01:16.711Z,3.50
2022-07-29T10:04:04.774Z,3.22
2022-07-29T10:06:36.304Z,3.22
2022-07-29T10:11:49.011Z,3.33
2022-07-29T10:14:17.407Z,3.00
2022-07-29T10:16:52.887Z,2.83
2022-07-29T10:19:25.441Z,3.08
2022-07-29T10:21:57.910Z,2.72
2022-07-29T10:24:30.197Z,2.65
2022-07-29T10:26:59.221Z,2.80
2022-07-29T10:29:28.006Z,2.97
2022-07-29T10:32:23.769Z,2.60
2022-07-29T10:35:07.136Z,2.70
2022-07-29T10:37:56.901Z,2.80
2022-07-29T10:41:12.748Z,2.30
2022-07-29T10:43:51.329Z,2.50
2022-07-29T10:46:20.450Z,2.75
2022-07-29T10:49:18.236Z,2.50
2022-07-29T10:51:51.119Z,2.30
2022-07-29T10:54:43.845Z,2.30
2022-07-29T10:57:57.729Z,2.50
2022-07-29T11:00:29.407Z,2.47
2022-07-29T11:02:59.154Z,2.20
2022-07-29T11:05:39.884Z,2.85
2022-07-29T11:08:25.925Z,2.30
2022-07-29T11:11:22.162Z,2.25
2022-07-29T11:13:53.150Z,2.55
2022-07-29T11:16:25.195Z,2.58
2022-07-29T11:19:11.284Z,2.20
2022-07-29T11:21:54.322Z,2.15
2022-07-29T11:24:35.795Z,1.90
2022-07-29T11:27:21.877Z,2.38
2022-07-29T11:30:02.117Z,1.80
2022-07-29T11:32:40.359Z,1.70
2022-07-29T11:35:38.465Z,1.70
2022-07-29T11:38:28.752Z,1.30
2022-07-29T11:41:26.011Z,1.48
2022-07-29T11:44:00.300Z,1.80
2022-07-29T11:46:51.909Z,1.65
2022-07-29T11:52:15.416Z,1.42
2022-07-29T11:54:58.211Z,1.35
2022-07-29T11:57:38.668Z,1.30
2022-07-29T12:00:12.571Z,1.48
2022-07-29T12:02:48.523Z,1.17
2022-07-29T12:05:23.989Z,1.60
2022-07-29T12:08:21.074Z,1.42
2022-07-29T12:10:51.379Z,1.55
2022-07-29T12:13:21.585Z,1.50
2022-07-29T12:15:59.958Z,1.20
2022-07-29T12:18:27.941Z,1.40
2022-07-29T12:21:05.015Z,1.30
2022-07-29T12:23:35.076Z,1.75
2022-07-29T12:26:10.685Z,1.33
2022-07-29T12:28:40.760Z,1.50
2022-07-29T12:31:42.168Z,1.85
2022-07-29T12:34:03.070Z,1.88
2022-07-29T12:36:30.707Z,2.00
2022-07-29T12:38:57.849Z,1.40
2022-07-29T12:41:25.162Z,1.73
2022-07-29T12:43:56.081Z,1.70
2022-07-29T12:46:23.519Z,1.60
2022-07-29T12:48:57.582Z,1.40
2022-07-29T12:51:35.624Z,1.80
2022-07-29T12:54:15.693Z,1.60
2022-07-29T12:56:45.760Z,1.50
2022-07-29T12:59:22.275Z,2.97
2022-07-29T13:01:52.941Z,1.80
2022-07-29T13:04:34.361Z,2.10
2022-07-29T13:07:08.286Z,1.83
2022-07-29T13:09:42.774Z,1.90
2022-07-29T13:14:46.488Z,1.42
2022-07-29T13:17:16.683Z,2.97
2022-07-29T13:19:48.661Z,1.83
2022-07-29T13:22:20.354Z,1.73
2022-07-29T13:24:53.774Z,1.60
2022-07-29T13:27:26.033Z,1.55
2022-07-29T13:29:58.954Z,1.50
2022-07-29T13:32:28.689Z,1.52
2022-07-29T13:34:58.722Z,1.23
2022-07-29T13:37:27.479Z,1.20
2022-07-29T13:39:55.199Z,1.30
2022-07-29T13:42:24.256Z,1.38
2022-07-29T13:44:52.767Z,1.45
2022-07-29T13:47:23.330Z,1.40
2022-07-29T13:50:06.765Z,1.23
2022-07-29T13:52:35.507Z,1.10
2022-07-29T13:55:04.359Z,1.15
2022-07-29T13:57:31.828Z,1.50
2022-07-29T13:59:59.155Z,1.25
2022-07-29T14:02:26.491Z,1.40
2022-07-29T14:04:55.032Z,1.90
2022-07-29T14:07:23.579Z,1.80
2022-07-29T14:09:51.282Z,1.45
2022-07-29T14:12:19.036Z,1.50
2022-07-29T14:14:47.146Z,1.48
2022-07-29T14:17:16.127Z,1.40
2022-07-29T14:19:43.864Z,1.50
2022-07-29T14:22:11.112Z,1.23
2022-07-29T14:24:39.690Z,1.50
2022-07-29T14:27:09.076Z,1.30
2022-07-29T14:29:38.338Z,1.50
2022-07-29T14:32:09.154Z,1.17
2022-07-29T14:34:37.652Z,1.65
2022-07-29T14:37:06.699Z,1.63
2022-07-29T14:39:42.322Z,1.50
2022-07-29T14:42:12.488Z,1.75
2022-07-29T14:44:42.213Z,1.40
2022-07-29T14:47:09.731Z,1.30
2022-07-29T14:49:37.101Z,1.48
2022-07-29T14:52:06.218Z,1.40
2022-07-29T14:54:33.375Z,1.60
2022-07-29T14:57:00.575Z,1.40
2022-07-29T14:59:27.830Z,1.20
2022-07-29T15:01:55.094Z,1.10
2022-07-29T15:04:22.524Z,1.42
2022-07-29T15:06:49.675Z,1.20
2022-07-29T15:09:16.886Z,1.33
2022-07-29T15:11:43.974Z,1.70
2022-07-29T15:14:11.136Z,1.30
2022-07-29T15:16:43.541Z,1.60
2022-07-29T15:19:11.595Z,1.35
2022-07-29T15:21:41.480Z,1.15
2022-07-29T15:24:19.055Z,1.30
2022-07-29T15:26:47.245Z,1.38
2022-07-29T15:29:15.767Z,1.10
2022-07-29T15:31:44.478Z,1.33
2022-07-29T15:34:11.711Z,1.42
2022-07-29T15:36:54.771Z,1.40
2022-07-29T15:39:23.152Z,1.25
2022-07-29T15:41:51.412Z,1.17
2022-07-29T15:44:19.419Z,1.05
2022-07-29T15:47:04.639Z,1.10
2022-07-29T15:52:25.170Z,1.20
2022-07-29T15:54:57.938Z,1.20
2022-07-29T15:57:25.846Z,1.42
2022-07-29T15:59:53.363Z,1.20
2022-07-29T16:02:20.820Z,1.15
2022-07-29T16:04:48.183Z,1.13
2022-07-29T16:07:22.750Z,1.27
2022-07-29T16:09:53.471Z,1.15
2022-07-29T16:12:20.938Z,1.10
2022-07-29T16:14:49.447Z,1.20
2022-07-29T16:17:17.434Z,1.38
2022-07-29T16:19:45.464Z,1.30
2022-07-29T16:22:13.622Z,1.23
2022-07-29T16:24:40.786Z,1.48
2022-07-29T16:27:08.028Z,1.50
2022-07-29T16:29:37.502Z,1.10
2022-07-29T16:32:06.565Z,1.20
2022-07-29T16:34:34.029Z,1.17
2022-07-29T16:37:01.406Z,1.13
2022-07-29T16:39:29.353Z,1.30
2022-07-29T16:42:00.200Z,1.48
2022-07-29T16:44:28.790Z,1.20
2022-07-29T16:46:58.931Z,1.02
2022-07-29T16:49:28.191Z,1.20
2022-07-29T16:51:55.337Z,1.45
2022-07-29T16:54:22.513Z,1.25
2022-07-29T16:56:49.717Z,1.25
2022-07-29T16:59:16.831Z,1.20
2022-07-29T17:01:44.315Z,1.40
2022-07-29T17:04:14.839Z,1.50
2022-07-29T17:06:42.351Z,1.30
2022-07-29T17:09:11.936Z,1.50
2022-07-29T17:11:54.078Z,1.58
2022-07-29T17:14:32.130Z,1.70
2022-07-29T17:17:02.233Z,1.50
2022-07-29T17:19:35.712Z,1.70
2022-07-29T17:22:11.635Z,1.67
2022-07-29T17:24:43.344Z,1.75
2022-07-29T17:27:11.003Z,1.67
2022-07-29T17:29:39.239Z,1.60
2022-07-29T17:32:09.248Z,1.70
2022-07-29T17:34:42.116Z,1.50
2022-07-29T17:37:11.309Z,1.40
2022-07-29T17:39:41.495Z,1.60
2022-07-29T17:42:11.949Z,1.52
2022-07-29T17:44:42.419Z,1.73
2022-07-29T17:47:15.851Z,1.50
2022-07-29T17:49:45.699Z,1.45
2022-07-29T17:52:12.986Z,1.73
2022-07-29T17:54:41.144Z,1.65
2022-07-29T17:57:08.220Z,1.52
2022-07-29T17:59:36.977Z,1.60
2022-07-29T18:02:05.171Z,1.52
2022-07-29T18:04:32.434Z,1.77
2022-07-29T18:07:01.022Z,1.50
2022-07-29T18:09:28.416Z,1.70
2022-07-29T18:11:55.911Z,1.45
2022-07-29T18:14:23.047Z,1.60
2022-07-29T18:16:50.224Z,1.42
2022-07-29T18:19:17.320Z,1.58
2022-07-29T18:21:54.055Z,1.67
2022-07-29T18:24:25.582Z,1.55
2022-07-29T18:26:53.681Z,1.50
2022-07-29T18:29:21.080Z,1.80
2022-07-29T18:31:50.329Z,1.40
2022-07-29T18:34:17.524Z,1.90
2022-07-29T18:36:46.319Z,1.60
2022-07-29T18:39:19.680Z,1.45
2022-07-29T18:41:52.420Z,1.33
2022-07-29T18:44:22.084Z,1.40
2022-07-29T18:46:52.388Z,1.30
2022-07-29T18:49:21.679Z,1.40
2022-07-29T18:51:50.407Z,1.30
2022-07-29T18:54:17.983Z,1.73
2022-07-29T18:56:46.924Z,1.58
2022-07-29T18:59:19.722Z,1.48
2022-07-29T19:01:48.760Z,1.60
2022-07-29T19:04:19.308Z,1.88
2022-07-29T19:06:46.492Z,1.40
2022-07-29T19:09:13.757Z,1.77
2022-07-29T19:11:41.010Z,1.50
2022-07-29T19:14:09.291Z,1.30
2022-07-29T19:16:36.711Z,1.60
2022-07-29T19:19:04.751Z,1.60
2022-07-29T19:21:31.934Z,1.90
2022-07-29T19:24:06.462Z,1.98
2022-07-29T19:26:38.218Z,1.77
2022-07-29T19:29:05.289Z,1.80
2022-07-29T19:31:34.625Z,1.58
2022-07-29T19:34:01.748Z,2.03
2022-07-29T19:36:30.467Z,1.60
2022-07-29T19:38:59.945Z,1.63
2022-07-29T19:41:32.904Z,2.17
2022-07-29T19:43:59.959Z,1.75
2022-07-29T19:46:29.014Z,1.90
2022-07-29T19:48:56.800Z,1.92
2022-07-29T19:51:24.365Z,1.70
2022-07-29T19:53:51.619Z,1.60
2022-07-29T19:56:18.730Z,1.90
2022-07-29T19:58:46.611Z,2.10
2022-07-29T20:01:15.083Z,2.08
2022-07-29T20:03:42.389Z,2.10
2022-07-29T20:06:09.556Z,2.20
2022-07-29T20:08:37.004Z,2.42
2022-07-29T20:11:06.140Z,2.10
2022-07-29T20:13:35.358Z,1.98
2022-07-29T20:16:05.615Z,2.00
2022-07-29T20:18:32.929Z,1.90
2022-07-29T20:21:01.457Z,2.13
2022-07-29T20:23:28.591Z,1.88
2022-07-29T20:26:01.188Z,1.88
2022-07-29T20:28:28.415Z,1.85
2022-07-29T20:30:55.626Z,1.88
2022-07-29T20:33:22.733Z,1.90
2022-07-29T20:35:49.883Z,2.20
2022-07-29T20:38:18.414Z,1.83
2022-07-29T20:40:46.050Z,2.00
2022-07-29T20:43:13.187Z,2.15
2022-07-29T20:45:40.313Z,2.67
2022-07-29T20:48:08.265Z,2.38
2022-07-29T20:50:35.904Z,2.25
2022-07-29T20:53:04.032Z,2.72
2022-07-29T20:55:32.081Z,2.65
2022-07-29T20:57:59.270Z,2.42
2022-07-29T21:00:26.434Z,2.60
2022-07-29T21:02:53.532Z,2.83
2022-07-29T21:05:20.762Z,2.80
2022-07-29T21:07:47.888Z,2.60
2022-07-29T21:10:15.376Z,2.65
2022-07-29T21:12:42.420Z,2.83
2022-07-29T21:15:13.305Z,2.58
2022-07-29T21:17:46.659Z,2.40
2022-07-29T21:20:19.360Z,2.38
2022-07-29T21:22:46.478Z,2.72
2022-07-29T21:25:13.711Z,2.40
2022-07-29T21:27:59.551Z,2.60
2022-07-29T21:30:27.408Z,2.85
2022-07-29T21:32:54.479Z,2.45
2022-07-29T21:35:52.148Z,3.05
2022-07-29T21:38:08.617Z,2.85
2022-07-29T21:40:35.668Z,2.80
2022-07-29T21:43:03.403Z,2.53
2022-07-29T21:45:30.547Z,2.60
2022-07-29T21:47:57.636Z,2.67
2022-07-29T21:50:24.888Z,2.88
2022-07-29T21:52:52.172Z,2.60
2022-07-29T21:55:19.429Z,2.88
2022-07-29T21:57:49.889Z,2.80
2022-07-29T22:00:19.021Z,3.10
2022-07-29T22:02:46.235Z,3.45
2022-07-29T22:05:14.439Z,3.58
2022-07-29T22:07:56.282Z,3.25
2022-07-29T22:10:27.738Z,3.42
2022-07-29T22:12:56.996Z,3.25
2022-07-29T22:15:25.012Z,2.90
2022-07-29T22:17:53.063Z,3.25
2022-07-29T22:20:20.863Z,3.92
2022-07-29T22:22:48.210Z,3.58
2022-07-29T22:25:15.619Z,3.50
2022-07-29T22:27:42.763Z,3.08
2022-07-29T22:30:10.893Z,3.28
2022-07-29T22:32:38.283Z,3.47
2022-07-29T22:35:05.935Z,3.20
2022-07-29T22:37:35.189Z,3.10
2022-07-29T22:40:03.771Z,3.25
2022-07-29T22:42:30.912Z,2.85
2022-07-29T22:44:57.987Z,3.35
2022-07-29T22:47:45.833Z,2.72
2022-07-29T22:50:12.321Z,2.90
2022-07-29T22:52:39.455Z,2.90
2022-07-29T22:55:07.470Z,2.88
2022-07-29T22:57:35.733Z,2.83
2022-07-29T23:00:04.847Z,2.80
2022-07-29T23:02:40.267Z,2.65
2022-07-29T23:05:08.989Z,3.30
2022-07-29T23:07:36.566Z,3.75
2022-07-29T23:10:05.183Z,3.35
2022-07-29T23:12:32.286Z,4.18
2022-07-29T23:14:59.491Z,4.00
2022-07-29T23:17:26.562Z,4.22
2022-07-29T23:19:53.636Z,4.72
2022-07-29T23:22:20.684Z,4.93
2022-07-29T23:24:48.146Z,4.90
2022-07-29T23:27:15.334Z,4.70
2022-07-29T23:29:43.404Z,4.65
2022-07-29T23:32:10.492Z,5.18
2022-07-29T23:34:37.546Z,5.03
2022-07-29T23:37:05.073Z,5.00
2022-07-29T23:39:32.196Z,5.22
2022-07-29T23:41:59.383Z,5.45
2022-07-29T23:44:26.483Z,5.07
2022-07-29T23:46:53.497Z,4.80
2022-07-29T23:49:20.571Z,5.35
2022-07-29T23:51:47.732Z,5.55
2022-07-29T23:54:15.078Z,5.55
2022-07-29T23:56:42.196Z,5.40
2022-07-29T23:59:09.277Z,5.65
